createdAt,value
2019-03-20T00:00:15.951Z,99.90
2019-03-20T00:02:44.684Z,99.90
2019-03-20T00:05:13.695Z,99.90
2019-03-20T00:07:42.528Z,99.90
2019-03-20T00:10:13.095Z,99.90
2019-03-20T00:12:43.406Z,99.90
2019-03-20T00:15:14.595Z,99.90
2019-03-20T00:17:43.847Z,99.90
2019-03-20T00:20:12.973Z,99.90
2019-03-20T00:22:43.131Z,99.90
2019-03-20T00:25:11.922Z,99.90
2019-03-20T00:27:40.976Z,99.90
2019-03-20T00:30:11.213Z,99.90
2019-03-20T00:32:39.738Z,99.90
2019-03-20T00:35:09.100Z,99.90
2019-03-20T00:37:38.055Z,99.90
2019-03-20T00:40:07.989Z,99.90
2019-03-20T00:42:36.574Z,99.90
2019-03-20T00:45:07.358Z,99.90
2019-03-20T00:47:36.301Z,99.90
2019-03-20T00:50:07.090Z,99.90
2019-03-20T00:52:35.724Z,99.90
2019-03-20T00:55:05.024Z,99.90
2019-03-20T00:57:33.699Z,99.90
2019-03-20T01:00:02.961Z,99.90
2019-03-20T01:02:33.291Z,99.90
2019-03-20T01:05:12.145Z,99.90
2019-03-20T01:07:33.760Z,99.90
2019-03-20T01:10:02.637Z,99.90
2019-03-20T01:12:31.998Z,99.90
2019-03-20T01:15:00.785Z,99.90
2019-03-20T01:17:29.592Z,99.90
2019-03-20T01:19:59.788Z,99.90
2019-03-20T01:22:28.187Z,99.90
2019-03-20T01:24:57.096Z,99.90
2019-03-20T01:27:26.007Z,99.90
2019-03-20T01:29:54.711Z,99.90
2019-03-20T01:32:23.391Z,99.90
2019-03-20T01:34:51.813Z,99.90
2019-03-20T01:37:20.692Z,99.90
2019-03-20T01:39:49.500Z,99.90
2019-03-20T01:42:18.364Z,99.90
2019-03-20T01:44:46.882Z,99.90
2019-03-20T01:47:17.200Z,99.90
2019-03-20T01:49:47.392Z,99.90
2019-03-20T01:52:17.298Z,99.90
2019-03-20T01:54:45.797Z,99.90
2019-03-20T01:57:14.236Z,99.90
2019-03-20T01:59:42.875Z,99.90
2019-03-20T02:02:11.993Z,99.90
2019-03-20T02:04:40.524Z,99.90
2019-03-20T02:07:08.986Z,99.90
2019-03-20T02:09:37.761Z,99.90
2019-03-20T02:12:06.485Z,99.90
2019-03-20T02:14:35.032Z,99.90
2019-03-20T02:17:03.456Z,99.90
2019-03-20T02:19:31.877Z,99.90
2019-03-20T02:22:00.486Z,99.90
2019-03-20T02:24:28.908Z,99.90
2019-03-20T02:26:57.288Z,99.90
2019-03-20T02:29:26.287Z,99.90
2019-03-20T02:31:54.930Z,99.90
2019-03-20T02:34:23.647Z,99.90
2019-03-20T02:36:52.322Z,99.90
2019-03-20T02:39:21.170Z,99.90
2019-03-20T02:41:49.595Z,99.90
2019-03-20T02:44:17.979Z,99.90
2019-03-20T02:46:46.503Z,99.90
2019-03-20T02:49:15.604Z,99.90
2019-03-20T02:51:44.134Z,99.90
2019-03-20T02:54:12.617Z,99.90
2019-03-20T02:56:41.105Z,99.90
2019-03-20T02:59:09.637Z,99.90
2019-03-20T03:01:38.053Z,99.90
2019-03-20T03:04:06.794Z,99.90
2019-03-20T03:06:35.367Z,99.90
2019-03-20T03:09:07.186Z,99.90
2019-03-20T03:11:36.006Z,99.90
2019-03-20T03:14:04.773Z,99.90
2019-03-20T03:16:35.124Z,99.90
2019-03-20T03:19:04.044Z,99.90
2019-03-20T03:21:32.646Z,99.90
2019-03-20T03:24:01.148Z,99.90
2019-03-20T03:26:29.724Z,99.90
2019-03-20T03:28:58.166Z,99.90
2019-03-20T03:31:26.695Z,99.90
2019-03-20T03:33:55.836Z,99.90
2019-03-20T03:36:24.261Z,99.90
2019-03-20T03:38:52.978Z,99.90
2019-03-20T03:41:21.700Z,99.90
2019-03-20T03:43:50.404Z,99.90
2019-03-20T03:46:19.016Z,99.90
2019-03-20T03:48:48.285Z,99.90
2019-03-20T03:51:16.817Z,99.90
2019-03-20T03:53:45.593Z,99.90
2019-03-20T03:56:14.342Z,99.90
2019-03-20T03:58:44.412Z,99.90
2019-03-20T04:01:12.923Z,99.90
2019-03-20T04:03:41.547Z,99.90
2019-03-20T04:06:10.370Z,99.90
2019-03-20T04:08:40.325Z,99.90
2019-03-20T04:11:08.848Z,99.90
2019-03-20T04:13:37.788Z,99.90
2019-03-20T04:16:06.276Z,99.90
2019-03-20T04:18:34.837Z,99.90
2019-03-20T04:21:03.293Z,99.90
2019-03-20T04:23:33.367Z,99.90
2019-03-20T04:26:02.162Z,99.90
2019-03-20T04:28:30.774Z,99.90
2019-03-20T04:30:59.624Z,99.90
2019-03-20T04:33:28.292Z,99.90
2019-03-20T04:35:56.709Z,99.90
2019-03-20T04:38:25.518Z,99.90
2019-03-20T04:40:54.283Z,99.90
2019-03-20T04:43:22.898Z,99.90
2019-03-20T04:45:51.372Z,99.90
2019-03-20T04:48:19.829Z,99.90
2019-03-20T04:50:48.396Z,99.90
2019-03-20T04:53:18.318Z,99.90
2019-03-20T04:55:46.819Z,99.90
2019-03-20T04:58:15.603Z,99.90
2019-03-20T05:00:44.027Z,99.90
2019-03-20T05:03:12.819Z,99.90
2019-03-20T05:05:41.680Z,99.90
2019-03-20T05:08:10.331Z,99.90
2019-03-20T05:10:39.069Z,99.90
2019-03-20T05:13:07.623Z,99.90
2019-03-20T05:15:40.003Z,99.90
2019-03-20T05:18:08.643Z,99.90
2019-03-20T05:20:37.284Z,99.90
2019-03-20T05:23:08.506Z,99.90
2019-03-20T05:25:37.211Z,99.90
2019-03-20T05:28:05.876Z,99.90
2019-03-20T05:30:35.879Z,99.90
2019-03-20T05:33:04.657Z,99.90
2019-03-20T05:35:33.164Z,99.90
2019-03-20T05:38:01.790Z,99.90
2019-03-20T05:40:30.406Z,99.90
2019-03-20T05:43:00.582Z,99.90
2019-03-20T05:45:39.877Z,99.90
2019-03-20T05:48:09.446Z,99.90
2019-03-20T05:50:38.143Z,99.90
2019-03-20T05:53:07.039Z,99.90
2019-03-20T05:55:35.718Z,99.90
2019-03-20T05:58:05.943Z,99.90
2019-03-20T06:00:35.402Z,99.90
2019-03-20T06:03:03.853Z,99.90
2019-03-20T06:05:33.035Z,99.90
2019-03-20T06:08:01.541Z,99.90
2019-03-20T06:10:29.920Z,99.90
2019-03-20T06:12:58.402Z,99.90
2019-03-20T06:15:29.032Z,99.90
2019-03-20T06:17:57.695Z,99.90
2019-03-20T06:20:26.108Z,99.90
2019-03-20T06:22:54.577Z,99.90
2019-03-20T06:25:23.078Z,99.90
2019-03-20T06:27:52.995Z,99.90
2019-03-20T06:30:21.808Z,99.90
2019-03-20T06:32:50.196Z,99.90
2019-03-20T06:35:18.586Z,99.90
2019-03-20T06:37:48.701Z,99.90
2019-03-20T06:40:17.219Z,99.90
2019-03-20T06:42:45.733Z,99.90
2019-03-20T06:45:14.123Z,99.90
2019-03-20T06:47:42.660Z,99.90
2019-03-20T06:50:13.910Z,99.90
2019-03-20T06:52:42.419Z,99.90
2019-03-20T06:55:10.817Z,99.90
2019-03-20T06:57:40.677Z,99.90
2019-03-20T07:00:49.669Z,99.90
2019-03-20T07:03:49.457Z,99.90
2019-03-20T07:07:12.185Z,99.90
2019-03-20T07:10:01.542Z,99.90
2019-03-20T07:12:29.934Z,99.90
2019-03-20T07:14:58.442Z,99.90
2019-03-20T07:17:26.980Z,99.90
2019-03-20T07:19:55.619Z,99.90
2019-03-20T07:22:24.080Z,99.90
2019-03-20T07:24:52.569Z,99.90
2019-03-20T07:27:21.010Z,99.90
2019-03-20T07:29:51.201Z,99.90
2019-03-20T07:32:20.093Z,99.90
2019-03-20T07:34:50.272Z,99.90
2019-03-20T07:37:19.199Z,99.90
2019-03-20T07:39:49.271Z,99.90
2019-03-20T07:42:17.691Z,99.90
2019-03-20T07:44:46.175Z,99.50
2019-03-20T07:47:14.901Z,99.70
2019-03-20T07:49:44.284Z,97.30
2019-03-20T07:52:12.869Z,99.00
2019-03-20T07:54:41.569Z,99.20
2019-03-20T07:57:09.960Z,98.10
2019-03-20T07:59:40.160Z,98.20
2019-03-20T08:02:10.363Z,98.70
2019-03-20T08:04:39.755Z,99.80
2019-03-20T08:07:08.449Z,99.90
2019-03-20T08:09:37.114Z,99.50
2019-03-20T08:12:05.642Z,97.50
2019-03-20T08:14:34.431Z,99.10
2019-03-20T08:17:03.060Z,98.40
2019-03-20T08:19:31.459Z,98.00
2019-03-20T08:21:59.863Z,98.20
2019-03-20T08:24:28.340Z,97.00
2019-03-20T08:26:58.587Z,98.20
2019-03-20T08:29:27.532Z,98.00
2019-03-20T08:31:55.924Z,98.70
2019-03-20T08:34:24.625Z,98.00
2019-03-20T08:36:53.228Z,96.30
2019-03-20T08:39:22.027Z,97.00
2019-03-20T08:44:36.994Z,97.00
2019-03-20T08:47:05.521Z,95.60
2019-03-20T08:49:33.957Z,96.60
2019-03-20T08:52:02.331Z,98.00
2019-03-20T08:54:30.733Z,98.40
2019-03-20T08:57:00.891Z,95.80
2019-03-20T08:59:29.873Z,95.60
2019-03-20T09:01:58.358Z,97.00
2019-03-20T09:04:26.831Z,96.00
2019-03-20T09:06:55.325Z,97.10
2019-03-20T09:09:23.711Z,96.90
2019-03-20T09:11:52.156Z,97.20
2019-03-20T09:14:20.536Z,96.90
2019-03-20T09:16:49.052Z,97.00
2019-03-20T09:19:17.643Z,97.90
2019-03-20T09:21:47.437Z,97.00
2019-03-20T09:24:17.627Z,95.20
2019-03-20T09:26:46.103Z,95.70
2019-03-20T09:29:18.829Z,95.50
2019-03-20T09:31:44.876Z,95.00
2019-03-20T09:34:13.364Z,94.90
2019-03-20T09:36:43.350Z,94.20
2019-03-20T09:39:12.195Z,93.80
2019-03-20T09:41:40.580Z,93.20
2019-03-20T09:44:09.366Z,93.20
2019-03-20T09:46:38.040Z,93.60
2019-03-20T09:49:06.528Z,93.20
2019-03-20T09:51:34.918Z,92.40
2019-03-20T09:54:03.328Z,91.30
2019-03-20T09:56:31.862Z,91.80
2019-03-20T09:59:00.507Z,93.00
2019-03-20T10:01:29.013Z,93.50
2019-03-20T10:03:57.521Z,93.30
2019-03-20T10:06:25.999Z,93.30
2019-03-20T10:08:54.714Z,93.80
2019-03-20T10:11:23.135Z,92.60
2019-03-20T10:13:51.651Z,91.40
2019-03-20T10:16:20.023Z,90.70
2019-03-20T10:18:48.649Z,90.40
2019-03-20T10:21:17.198Z,91.20
2019-03-20T10:23:45.557Z,90.90
2019-03-20T10:26:14.051Z,91.80
2019-03-20T10:28:42.510Z,90.60
2019-03-20T10:31:10.910Z,90.00
2019-03-20T10:33:39.402Z,92.00
2019-03-20T10:36:07.884Z,91.80
2019-03-20T10:38:36.502Z,91.50
2019-03-20T10:41:05.067Z,91.30
2019-03-20T10:43:33.502Z,90.60
2019-03-20T10:46:01.895Z,92.90
2019-03-20T10:48:30.471Z,93.20
2019-03-20T10:50:59.663Z,91.20
2019-03-20T10:53:28.145Z,92.50
2019-03-20T10:55:56.748Z,90.20
2019-03-20T10:58:25.171Z,89.80
2019-03-20T11:00:53.673Z,90.20
2019-03-20T11:03:23.852Z,89.90
2019-03-20T11:05:52.362Z,90.40
2019-03-20T11:08:20.866Z,90.50
2019-03-20T11:10:49.251Z,84.70
2019-03-20T11:13:18.357Z,86.20
2019-03-20T11:15:53.365Z,84.60
2019-03-20T11:18:21.887Z,77.30
2019-03-20T11:20:50.364Z,88.90
2019-03-20T11:23:18.876Z,83.70
2019-03-20T11:25:48.480Z,83.50
2019-03-20T11:28:16.970Z,85.50
2019-03-20T11:30:45.735Z,82.30
2019-03-20T11:33:14.133Z,80.10
2019-03-20T11:35:42.716Z,80.60
2019-03-20T11:38:12.746Z,80.40
2019-03-20T11:40:41.286Z,73.00
2019-03-20T11:43:09.741Z,77.50
2019-03-20T11:45:54.554Z,77.40
2019-03-20T11:48:22.974Z,73.70
2019-03-20T11:50:51.478Z,74.50
2019-03-20T11:53:19.874Z,75.00
2019-03-20T11:55:48.264Z,73.70
2019-03-20T11:58:16.746Z,74.00
2019-03-20T12:00:45.652Z,75.10
2019-03-20T12:03:14.149Z,74.00
2019-03-20T12:05:42.654Z,74.20
2019-03-20T12:08:11.573Z,71.40
2019-03-20T12:10:39.943Z,69.50
2019-03-20T12:13:08.619Z,69.10
2019-03-20T12:15:39.880Z,66.60
2019-03-20T12:18:09.141Z,69.20
2019-03-20T12:20:38.937Z,71.10
2019-03-20T12:23:07.415Z,66.30
2019-03-20T12:25:37.037Z,64.30
2019-03-20T12:28:07.338Z,60.20
2019-03-20T12:30:36.084Z,59.20
2019-03-20T12:33:04.694Z,61.20
2019-03-20T12:35:33.164Z,63.20
2019-03-20T12:38:13.343Z,61.40
2019-03-20T12:40:33.720Z,59.00
2019-03-20T12:43:02.705Z,59.00
2019-03-20T12:45:32.330Z,58.20
2019-03-20T12:48:01.186Z,57.10
2019-03-20T12:50:29.710Z,55.80
2019-03-20T12:52:58.252Z,55.10
2019-03-20T12:55:26.696Z,55.40
2019-03-20T12:57:55.380Z,54.10
2019-03-20T13:00:23.915Z,53.00
2019-03-20T13:02:52.318Z,54.30
2019-03-20T13:05:21.032Z,55.20
2019-03-20T13:07:49.698Z,52.90
2019-03-20T13:10:18.782Z,53.90
2019-03-20T13:12:47.457Z,53.20
2019-03-20T13:15:19.070Z,51.20
2019-03-20T13:17:47.486Z,51.20
2019-03-20T13:20:15.988Z,52.20
2019-03-20T13:22:47.196Z,53.50
2019-03-20T13:25:15.714Z,53.40
2019-03-20T13:27:44.279Z,50.70
2019-03-20T13:30:20.330Z,48.60
2019-03-20T13:32:49.046Z,48.30
2019-03-20T13:35:17.422Z,51.00
2019-03-20T13:37:46.007Z,52.50
2019-03-20T13:40:16.185Z,52.60
2019-03-20T13:42:46.499Z,51.00
2019-03-20T13:45:15.519Z,50.10
2019-03-20T13:47:44.086Z,50.30
2019-03-20T13:50:13.403Z,48.10
2019-03-20T13:52:43.603Z,49.50
2019-03-20T13:55:12.259Z,48.90
2019-03-20T13:57:41.037Z,48.10
2019-03-20T14:00:19.875Z,48.90
2019-03-20T14:02:48.397Z,50.70
2019-03-20T14:05:17.000Z,48.80
2019-03-20T14:07:45.771Z,48.90
2019-03-20T14:10:24.652Z,49.30
2019-03-20T14:12:47.176Z,50.10
2019-03-20T14:15:16.965Z,51.90
2019-03-20T14:17:45.428Z,48.40
2019-03-20T14:20:19.952Z,48.20
2019-03-20T14:22:50.141Z,49.60
2019-03-20T14:25:18.648Z,49.70
2019-03-20T14:27:47.127Z,49.80
2019-03-20T14:30:21.612Z,51.30
2019-03-20T14:32:50.212Z,51.40
2019-03-20T14:35:18.706Z,50.50
2019-03-20T14:37:47.212Z,49.90
2019-03-20T14:40:17.512Z,47.50
2019-03-20T14:42:46.248Z,49.30
2019-03-20T14:45:14.903Z,50.90
2019-03-20T14:47:43.685Z,50.50
2019-03-20T14:50:15.815Z,52.40
2019-03-20T14:52:44.402Z,53.30
2019-03-20T14:55:14.310Z,54.40
2019-03-20T14:57:42.901Z,54.20
2019-03-20T15:00:21.024Z,53.40
2019-03-20T15:02:50.450Z,53.60
2019-03-20T15:05:18.936Z,54.40
2019-03-20T15:07:47.894Z,56.00
2019-03-20T15:10:18.322Z,55.30
2019-03-20T15:12:47.537Z,54.30
2019-03-20T15:15:39.340Z,56.40
2019-03-20T15:18:09.952Z,55.00
2019-03-20T15:20:40.128Z,56.10
2019-03-20T15:23:08.516Z,54.80
2019-03-20T15:25:37.055Z,57.00
2019-03-20T15:28:06.595Z,54.30
2019-03-20T15:30:35.090Z,55.90
2019-03-20T15:33:03.477Z,56.00
2019-03-20T15:35:32.053Z,56.40
2019-03-20T15:38:01.849Z,56.50
2019-03-20T15:40:32.147Z,58.00
2019-03-20T15:43:00.964Z,56.70
2019-03-20T15:45:29.776Z,53.80
2019-03-20T15:47:58.334Z,56.40
2019-03-20T15:50:26.866Z,56.40
2019-03-20T15:52:55.990Z,57.60
2019-03-20T15:55:27.627Z,57.30
2019-03-20T15:57:56.805Z,57.60
2019-03-20T16:00:25.529Z,57.00
2019-03-20T16:03:01.423Z,57.00
2019-03-20T16:05:29.928Z,57.50
2019-03-20T16:07:59.856Z,58.20
2019-03-20T16:10:30.336Z,57.30
2019-03-20T16:12:58.852Z,57.40
2019-03-20T16:15:27.757Z,58.60
2019-03-20T16:17:56.396Z,59.20
2019-03-20T16:20:25.146Z,61.40
2019-03-20T16:22:55.536Z,60.00
2019-03-20T16:25:24.530Z,59.90
2019-03-20T16:27:54.949Z,61.60
2019-03-20T16:30:23.524Z,61.90
2019-03-20T16:32:52.400Z,62.20
2019-03-20T16:35:21.010Z,62.10
2019-03-20T16:37:49.582Z,64.20
2019-03-20T16:40:20.554Z,62.20
2019-03-20T16:42:49.227Z,63.30
2019-03-20T16:45:24.005Z,61.70
2019-03-20T16:47:52.792Z,62.90
2019-03-20T16:50:22.226Z,62.30
2019-03-20T16:52:50.965Z,62.40
2019-03-20T16:55:21.211Z,62.90
2019-03-20T16:57:50.185Z,65.00
2019-03-20T17:00:25.478Z,65.50
2019-03-20T17:02:54.382Z,66.20
2019-03-20T17:05:23.740Z,65.60
2019-03-20T17:07:52.745Z,67.00
2019-03-20T17:10:27.933Z,66.60
2019-03-20T17:12:59.013Z,66.60
2019-03-20T17:15:28.774Z,67.70
2019-03-20T17:17:57.792Z,67.50
2019-03-20T17:20:26.442Z,68.20
2019-03-20T17:22:55.369Z,67.80
2019-03-20T17:25:23.980Z,68.50
2019-03-20T17:27:53.457Z,69.50
2019-03-20T17:30:31.843Z,71.10
2019-03-20T17:33:00.573Z,70.80
2019-03-20T17:35:30.297Z,69.40
2019-03-20T17:37:59.120Z,71.50
2019-03-20T17:40:27.806Z,71.70
2019-03-20T17:42:56.987Z,73.30
2019-03-20T17:45:26.192Z,74.40
2019-03-20T17:47:54.983Z,74.00
2019-03-20T17:50:26.761Z,74.60
2019-03-20T17:52:55.317Z,75.10
2019-03-20T17:55:23.947Z,76.10
2019-03-20T17:57:53.689Z,76.60
2019-03-20T18:00:31.137Z,77.80
2019-03-20T18:03:00.042Z,78.20
2019-03-20T18:05:28.930Z,78.60
2019-03-20T18:07:57.629Z,78.80
2019-03-20T18:10:26.141Z,79.00
2019-03-20T18:12:54.742Z,79.70
2019-03-20T18:15:23.555Z,80.10
2019-03-20T18:17:52.232Z,80.80
2019-03-20T18:20:21.946Z,81.40
2019-03-20T18:22:50.822Z,81.10
2019-03-20T18:25:21.075Z,81.60
2019-03-20T18:27:50.214Z,82.00
2019-03-20T18:30:21.909Z,83.10
2019-03-20T18:32:50.524Z,82.60
2019-03-20T18:35:19.851Z,82.60
2019-03-20T18:37:49.665Z,83.20
2019-03-20T18:40:18.563Z,83.50
2019-03-20T18:42:47.325Z,84.00
2019-03-20T18:45:17.564Z,84.80
2019-03-20T18:47:48.911Z,85.00
2019-03-20T18:50:18.929Z,85.30
2019-03-20T18:52:48.032Z,85.80
2019-03-20T18:55:18.203Z,86.00
2019-03-20T18:57:47.091Z,86.70
2019-03-20T19:00:21.699Z,88.10
2019-03-20T19:02:51.338Z,86.90
2019-03-20T19:05:30.966Z,86.90
2019-03-20T19:08:04.755Z,87.50
2019-03-20T19:10:33.724Z,87.80
2019-03-20T19:13:02.796Z,89.20
2019-03-20T19:15:31.603Z,89.00
2019-03-20T19:18:00.141Z,89.20
2019-03-20T19:20:28.626Z,89.10
2019-03-20T19:22:57.227Z,88.90
2019-03-20T19:25:25.887Z,89.30
2019-03-20T19:27:54.635Z,90.20
2019-03-20T19:30:23.235Z,90.30
2019-03-20T19:32:52.126Z,90.50
2019-03-20T19:35:20.759Z,90.50
2019-03-20T19:37:49.698Z,91.40
2019-03-20T19:40:18.305Z,91.60
2019-03-20T19:42:47.353Z,91.80
2019-03-20T19:45:16.370Z,91.60
2019-03-20T19:47:45.188Z,92.10
2019-03-20T19:50:13.734Z,92.10
2019-03-20T19:52:42.290Z,92.30
2019-03-20T19:55:10.774Z,92.20
2019-03-20T19:57:39.691Z,92.50
2019-03-20T20:00:13.312Z,93.00
2019-03-20T20:02:42.335Z,93.20
2019-03-20T20:05:15.611Z,93.40
2019-03-20T20:07:41.663Z,93.40
2019-03-20T20:10:10.459Z,93.90
2019-03-20T20:12:38.969Z,94.00
2019-03-20T20:15:14.676Z,94.20
2019-03-20T20:17:43.823Z,94.20
2019-03-20T20:20:14.998Z,94.10
2019-03-20T20:22:45.531Z,94.20
2019-03-20T20:25:14.543Z,94.30
2019-03-20T20:27:43.115Z,94.50
2019-03-20T20:30:14.519Z,94.40
2019-03-20T20:32:43.248Z,94.60
2019-03-20T20:35:12.331Z,94.70
2019-03-20T20:37:41.438Z,94.90
2019-03-20T20:40:12.915Z,94.90
2019-03-20T20:42:43.142Z,95.50
2019-03-20T20:45:12.189Z,95.90
2019-03-20T20:47:40.991Z,95.50
2019-03-20T20:50:10.437Z,95.70
2019-03-20T20:52:39.212Z,95.80
2019-03-20T20:55:10.896Z,95.70
2019-03-20T20:57:41.342Z,95.60
2019-03-20T21:00:14.914Z,95.80
2019-03-20T21:02:43.369Z,96.40
2019-03-20T21:05:12.146Z,96.40
2019-03-20T21:07:40.747Z,97.00
2019-03-20T21:10:10.881Z,96.90
2019-03-20T21:12:42.481Z,96.80
2019-03-20T21:15:45.096Z,96.60
2019-03-20T21:19:12.504Z,96.50
2019-03-20T21:22:43.493Z,97.10
2019-03-20T21:25:15.022Z,97.20
2019-03-20T21:28:56.896Z,97.20
2019-03-20T21:31:46.616Z,97.40
2019-03-20T21:35:33.323Z,97.20
2019-03-20T21:38:04.221Z,97.20
2019-03-20T21:41:26.122Z,97.30
2019-03-20T21:44:40.353Z,97.50
2019-03-20T21:47:34.010Z,97.60
2019-03-20T21:51:00.106Z,98.00
2019-03-20T21:54:17.960Z,98.40
2019-03-20T21:57:28.991Z,98.40
2019-03-20T22:01:06.073Z,98.60
2019-03-20T22:03:35.758Z,98.50
2019-03-20T22:07:04.515Z,98.80
2019-03-20T22:10:39.593Z,99.20
2019-03-20T22:13:46.968Z,99.50
2019-03-20T22:17:34.095Z,99.30
2019-03-20T22:20:46.011Z,99.90
2019-03-20T22:23:57.575Z,99.40
2019-03-20T22:27:11.514Z,99.50
2019-03-20T22:29:41.176Z,99.60
2019-03-20T22:33:34.981Z,99.70
2019-03-20T22:36:13.686Z,99.60
2019-03-20T22:39:39.622Z,99.90
2019-03-20T22:42:54.351Z,99.80
2019-03-20T22:46:31.296Z,99.80
2019-03-20T22:49:55.520Z,99.70
2019-03-20T22:53:57.951Z,99.30
2019-03-20T22:57:06.050Z,99.00
2019-03-20T22:59:36.976Z,99.50
2019-03-20T23:02:23.986Z,99.20
2019-03-20T23:04:58.316Z,99.10
2019-03-20T23:07:27.926Z,98.90
2019-03-20T23:09:59.104Z,98.90
2019-03-20T23:12:28.326Z,99.00
2019-03-20T23:14:58.024Z,99.10
2019-03-20T23:17:28.127Z,99.20
2019-03-20T23:19:58.056Z,99.40
2019-03-20T23:22:27.564Z,99.50
2019-03-20T23:24:58.895Z,99.60
2019-03-20T23:27:30.553Z,99.40
2019-03-20T23:30:01.108Z,99.40
2019-03-20T23:32:30.915Z,99.90
2019-03-20T23:35:00.355Z,99.40
2019-03-20T23:37:29.600Z,99.30
2019-03-20T23:40:00.782Z,99.60
2019-03-20T23:42:30.368Z,99.70
2019-03-20T23:45:00.183Z,99.60
2019-03-20T23:47:47.864Z,99.40
2019-03-20T23:50:17.445Z,99.60
2019-03-20T23:52:46.694Z,99.90
2019-03-20T23:55:16.220Z,99.90
2019-03-20T23:57:45.485Z,99.70
